createdAt,value
2018-05-23T00:04:44.137Z,5.40
2018-05-23T00:09:46.206Z,7.10
2018-05-23T00:14:48.282Z,6.37
2018-05-23T00:19:50.254Z,6.87
2018-05-23T00:24:52.230Z,6.47
2018-05-23T00:29:53.651Z,7.77
2018-05-23T00:34:54.970Z,6.27
2018-05-23T00:39:57.070Z,8.83
2018-05-23T00:44:58.363Z,8.20
2018-05-23T00:49:59.729Z,8.17
2018-05-23T00:55:13.437Z,8.27
2018-05-23T01:00:14.800Z,7.27
2018-05-23T01:05:16.883Z,7.73
2018-05-23T01:10:18.226Z,7.40
2018-05-23T01:15:19.537Z,8.33
2018-05-23T01:20:21.544Z,8.07
2018-05-23T01:25:22.837Z,6.90
2018-05-23T01:30:25.143Z,7.50
2018-05-23T01:35:26.461Z,5.80
2018-05-23T01:40:27.771Z,6.00
2018-05-23T01:45:29.055Z,7.27
2018-05-23T01:50:30.344Z,7.80
2018-05-23T01:55:32.352Z,7.77
2018-05-23T02:00:34.536Z,6.70
2018-05-23T02:05:35.742Z,9.07
2018-05-23T02:10:36.979Z,9.93
2018-05-23T02:15:38.263Z,8.73
2018-05-23T02:20:39.571Z,8.40
2018-05-23T02:25:41.669Z,10.30
2018-05-23T02:30:43.745Z,8.23
2018-05-23T02:35:45.829Z,6.97
2018-05-23T02:40:47.113Z,10.37
2018-05-23T02:45:48.467Z,10.77
2018-05-23T02:50:49.743Z,7.60
2018-05-23T02:55:51.011Z,6.33
2018-05-23T03:00:52.342Z,9.63
2018-05-23T03:05:54.354Z,7.27
2018-05-23T03:10:55.801Z,7.07
2018-05-23T03:15:57.036Z,8.27
2018-05-23T03:20:58.400Z,8.80
2018-05-23T03:25:59.683Z,10.07
2018-05-23T03:31:00.977Z,8.10
2018-05-23T03:36:03.043Z,10.23
2018-05-23T03:41:04.363Z,9.43
2018-05-23T03:46:06.434Z,7.17
2018-05-23T03:51:08.466Z,7.90
2018-05-23T03:56:09.702Z,6.13
2018-05-23T04:01:24.082Z,8.20
2018-05-23T04:06:37.624Z,6.37
2018-05-23T04:11:38.997Z,6.73
2018-05-23T04:16:40.309Z,8.70
2018-05-23T04:21:42.350Z,8.03
2018-05-23T04:26:43.636Z,6.63
2018-05-23T04:31:44.961Z,6.97
2018-05-23T04:36:46.317Z,7.80
2018-05-23T04:41:48.370Z,13.07
2018-05-23T04:46:50.398Z,10.60
2018-05-23T04:51:52.462Z,9.93
2018-05-23T04:56:53.788Z,9.37
2018-05-23T05:01:55.813Z,8.63
2018-05-23T05:06:57.084Z,7.83
2018-05-23T05:11:58.402Z,7.23
2018-05-23T05:16:59.701Z,11.43
2018-05-23T05:22:00.959Z,10.10
2018-05-23T05:27:02.245Z,8.47
2018-05-23T05:32:03.543Z,11.77
2018-05-23T05:37:05.567Z,9.80
2018-05-23T05:42:06.814Z,9.00
2018-05-23T05:47:08.058Z,9.27
2018-05-23T05:52:09.263Z,7.80
2018-05-23T05:57:10.607Z,9.93
2018-05-23T06:02:11.944Z,11.77
2018-05-23T06:07:13.264Z,10.10
2018-05-23T06:12:14.625Z,10.13
2018-05-23T06:17:15.945Z,12.03
2018-05-23T06:22:17.380Z,12.00
2018-05-23T06:27:18.578Z,8.80
2018-05-23T06:32:19.927Z,9.73
2018-05-23T06:37:21.223Z,10.20
2018-05-23T06:42:22.598Z,11.30
2018-05-23T06:47:23.934Z,9.73
2018-05-23T06:52:25.239Z,12.83
2018-05-23T06:57:27.319Z,9.30
2018-05-23T07:02:29.376Z,10.10
2018-05-23T07:07:30.650Z,11.20
2018-05-23T07:12:31.982Z,9.67
2018-05-23T07:17:33.328Z,10.60
2018-05-23T07:22:34.637Z,9.20
2018-05-23T07:27:36.052Z,9.40
2018-05-23T07:32:38.465Z,13.50
2018-05-23T07:37:40.721Z,12.27
2018-05-23T07:42:42.145Z,10.07
2018-05-23T07:47:43.503Z,11.10
2018-05-23T07:52:44.819Z,13.60
2018-05-23T07:57:46.091Z,14.40
2018-05-23T08:02:47.377Z,17.87
2018-05-23T08:07:48.644Z,19.30
2018-05-23T08:12:50.057Z,11.07
2018-05-23T08:17:51.420Z,11.50
2018-05-23T08:22:52.779Z,10.13
2018-05-23T08:27:54.308Z,11.97
2018-05-23T08:32:56.406Z,13.97
2018-05-23T08:37:59.525Z,12.20
2018-05-23T08:43:00.837Z,10.80
2018-05-23T08:48:02.931Z,10.57
2018-05-23T08:53:04.337Z,9.63
2018-05-23T08:58:07.702Z,11.33
2018-05-23T09:03:09.051Z,11.97
2018-05-23T09:08:10.468Z,12.73
2018-05-23T09:13:11.886Z,10.77
2018-05-23T09:18:13.184Z,10.63
2018-05-23T09:23:15.572Z,9.50
2018-05-23T09:28:17.665Z,10.90
2018-05-23T09:33:18.990Z,8.10
2018-05-23T09:38:20.387Z,10.53
2018-05-23T09:43:21.679Z,11.43
2018-05-23T09:48:22.994Z,10.67
2018-05-23T09:53:24.328Z,8.20
2018-05-23T09:58:25.645Z,9.57
2018-05-23T10:03:26.947Z,9.33
2018-05-23T10:08:28.383Z,9.77
2018-05-23T10:13:29.741Z,10.13
2018-05-23T10:18:31.102Z,8.37
2018-05-23T10:23:32.527Z,8.17
2018-05-23T10:28:33.789Z,8.87
2018-05-23T10:33:35.146Z,10.13
2018-05-23T10:38:36.532Z,8.80
2018-05-23T10:43:38.613Z,9.83
2018-05-23T10:48:39.878Z,8.87
2018-05-23T10:53:41.861Z,8.90
2018-05-23T10:58:43.218Z,11.80
2018-05-23T11:03:44.688Z,12.03
2018-05-23T11:08:46.015Z,10.07
2018-05-23T11:13:48.137Z,9.27
2018-05-23T11:18:49.462Z,9.03
2018-05-23T11:23:50.852Z,9.23
2018-05-23T11:28:52.179Z,9.20
2018-05-23T11:33:53.515Z,10.17
2018-05-23T11:38:54.764Z,12.53
2018-05-23T11:43:56.135Z,11.10
2018-05-23T11:48:57.421Z,12.30
2018-05-23T11:53:58.720Z,12.60
2018-05-23T11:59:00.970Z,9.97
2018-05-23T12:04:02.294Z,12.83
2018-05-23T12:09:04.899Z,11.17
2018-05-23T12:14:06.203Z,11.53
2018-05-23T12:19:07.556Z,10.63
2018-05-23T12:24:09.226Z,10.47
2018-05-23T12:29:10.498Z,11.37
2018-05-23T12:34:11.965Z,13.83
2018-05-23T12:39:13.348Z,13.20
2018-05-23T12:44:15.571Z,11.67
2018-05-23T12:49:16.984Z,10.93
2018-05-23T12:54:18.325Z,9.97
2018-05-23T12:59:19.770Z,10.60
2018-05-23T13:04:21.260Z,9.00
2018-05-23T13:09:22.614Z,5.80
2018-05-23T13:14:23.955Z,7.57
2018-05-23T13:19:25.354Z,5.77
2018-05-23T13:24:26.731Z,5.63
2018-05-23T13:29:28.796Z,8.43
2018-05-23T13:34:31.708Z,7.90
2018-05-23T13:39:33.779Z,6.70
2018-05-23T13:44:35.186Z,7.07
2018-05-23T13:49:36.514Z,8.43
2018-05-23T13:54:37.878Z,7.27
2018-05-23T13:59:39.955Z,6.90
2018-05-23T14:04:41.322Z,7.13
2018-05-23T14:09:43.429Z,9.20
2018-05-23T14:14:44.888Z,6.73
2018-05-23T14:19:46.509Z,6.17
2018-05-23T14:24:47.989Z,8.07
2018-05-23T14:29:49.614Z,5.93
2018-05-23T14:34:51.000Z,6.03
2018-05-23T14:39:52.377Z,7.00
2018-05-23T14:44:53.869Z,5.47
2018-05-23T14:49:56.359Z,5.37
2018-05-23T14:54:57.794Z,6.13
2018-05-23T14:59:59.123Z,5.33
2018-05-23T15:05:00.424Z,10.23
2018-05-23T15:10:01.674Z,4.17
2018-05-23T15:15:03.117Z,5.60
2018-05-23T15:20:04.579Z,4.87
2018-05-23T15:25:05.789Z,3.90
2018-05-23T15:30:07.878Z,5.53
2018-05-23T15:35:09.974Z,5.10
2018-05-23T15:40:11.309Z,7.40
2018-05-23T15:45:13.439Z,4.67
2018-05-23T15:50:14.844Z,6.87
2018-05-23T15:55:16.316Z,5.93
2018-05-23T16:00:17.897Z,4.30
2018-05-23T16:05:20.005Z,5.30
2018-05-23T16:10:21.476Z,8.60
2018-05-23T16:15:22.872Z,4.30
2018-05-23T16:20:24.261Z,5.87
2018-05-23T16:25:25.695Z,4.17
2018-05-23T16:30:27.010Z,5.73
2018-05-23T16:35:29.118Z,4.10
2018-05-23T16:40:30.508Z,6.50
2018-05-23T16:45:32.862Z,6.63
2018-05-23T16:50:34.230Z,6.27
2018-05-23T16:55:35.615Z,6.43
2018-05-23T17:00:36.958Z,8.70
2018-05-23T17:05:38.508Z,4.23
2018-05-23T17:10:39.976Z,4.33
2018-05-23T17:15:41.393Z,10.23
2018-05-23T17:20:42.925Z,5.23
2018-05-23T17:25:44.419Z,8.17
2018-05-23T17:30:45.820Z,18.73
2018-05-23T17:35:47.224Z,4.00
2018-05-23T17:40:48.569Z,4.40
2018-05-23T17:45:50.009Z,7.43
2018-05-23T17:50:53.327Z,6.00
2018-05-23T17:55:55.099Z,4.37
2018-05-23T18:00:57.351Z,5.10
2018-05-23T18:05:59.557Z,5.20
2018-05-23T18:11:01.631Z,4.43
2018-05-23T18:16:03.165Z,6.10
2018-05-23T18:21:04.491Z,4.30
2018-05-23T18:26:05.960Z,4.90
2018-05-23T18:31:07.247Z,6.13
2018-05-23T18:36:09.585Z,5.70
2018-05-23T18:41:11.592Z,4.47
2018-05-23T18:46:13.003Z,4.93
2018-05-23T18:51:14.349Z,4.43
2018-05-23T18:56:15.669Z,6.97
2018-05-23T19:01:17.022Z,6.17
2018-05-23T19:06:18.423Z,4.93
2018-05-23T19:11:19.755Z,9.33
2018-05-23T19:16:21.808Z,5.50
2018-05-23T19:21:23.407Z,6.37
2018-05-23T19:26:24.841Z,6.27
2018-05-23T19:31:26.314Z,4.70
2018-05-23T19:36:27.714Z,5.00
2018-05-23T19:41:28.994Z,5.37
2018-05-23T19:46:30.288Z,7.80
2018-05-23T19:51:31.630Z,5.97
2018-05-23T19:56:33.152Z,5.90
2018-05-23T20:01:34.360Z,7.77
2018-05-23T20:06:35.671Z,5.37
2018-05-23T20:11:37.025Z,6.07
2018-05-23T20:16:39.034Z,6.57
2018-05-23T20:21:40.393Z,5.17
2018-05-23T20:26:41.682Z,7.87
2018-05-23T20:31:42.961Z,6.37
2018-05-23T20:36:44.218Z,6.00
2018-05-23T20:41:46.393Z,5.93
2018-05-23T20:46:48.518Z,6.40
2018-05-23T20:51:50.071Z,5.87
2018-05-23T20:56:51.445Z,6.30
2018-05-23T21:01:54.614Z,4.93
2018-05-23T21:06:55.929Z,5.70
2018-05-23T21:11:58.026Z,5.83
2018-05-23T21:16:59.380Z,8.13
2018-05-23T21:22:00.774Z,7.30
2018-05-23T21:27:02.082Z,4.93
2018-05-23T21:32:04.490Z,5.47
2018-05-23T21:37:05.916Z,5.53
2018-05-23T21:42:07.235Z,7.43
2018-05-23T21:47:08.685Z,6.70
2018-05-23T21:52:10.053Z,6.67
2018-05-23T21:57:11.503Z,10.60
2018-05-23T22:02:13.654Z,6.73
2018-05-23T22:07:15.115Z,5.97
2018-05-23T22:12:17.281Z,8.17
2018-05-23T22:17:18.593Z,9.50
2018-05-23T22:22:20.027Z,8.60
2018-05-23T22:27:21.524Z,9.80
2018-05-23T22:32:23.177Z,7.30
2018-05-23T22:37:25.354Z,8.13
2018-05-23T22:42:26.727Z,6.73
2018-05-23T22:47:28.748Z,7.53
2018-05-23T22:52:30.046Z,8.83
2018-05-23T22:57:31.401Z,6.83
2018-05-23T23:02:32.715Z,7.67
2018-05-23T23:07:34.757Z,8.33
2018-05-23T23:12:36.087Z,10.23
2018-05-23T23:17:37.520Z,9.13
2018-05-23T23:22:38.794Z,10.50
2018-05-23T23:27:40.111Z,7.87
2018-05-23T23:32:42.253Z,7.80
2018-05-23T23:37:44.157Z,8.20
2018-05-23T23:42:45.924Z,7.53
2018-05-23T23:47:47.631Z,8.67
2018-05-23T23:52:49.270Z,7.30
2018-05-23T23:57:51.034Z,8.00
